Time;durP1;ratioP1;P1;durP2;ratioP2;P2;SDS_P1;SDS_P2;PMS_P1;PMS_P2;Temp;Humidity;BMP_temperature;BMP_pressure;BME280_temperature;BME280_humidity;BME280_pressure;Samples;Min_cycle;Max_cycle;Signal;HPM_P1;HPM_P2
2021/05/15 00:02:04;;;;;;;32.60;5.25;;;;;;;;;;5070119;28;20025;-62
2021/05/15 00:04:31;;;;;;;27.98;4.97;;;;;;;;;;5059588;28;20009;-63
2021/05/15 00:06:58;;;;;;;26.85;4.70;;;;;;;;;;5061403;28;20037;-65
2021/05/15 00:09:26;;;;;;;25.70;4.88;;;;;;;;;;5052600;28;20090;-66
2021/05/15 00:11:53;;;;;;;25.70;4.75;;;;;;;;;;5053418;28;20020;-64
2021/05/15 00:14:21;;;;;;;26.05;6.15;;;;;;;;;;5054845;28;20099;-65
2021/05/15 00:16:48;;;;;;;27.67;6.90;;;;;;;;;;5054935;28;20075;-64
2021/05/15 00:19:15;;;;;;;36.75;6.95;;;;;;;;;;5066668;28;20032;-65
2021/05/15 00:21:43;;;;;;;41.17;8.63;;;;;;;;;;5058173;28;20029;-62
2021/05/15 00:24:11;;;;;;;50.70;9.63;;;;;;;;;;5064987;28;20013;-65
2021/05/15 00:26:38;;;;;;;48.28;9.07;;;;;;;;;;5074087;28;20017;-65
2021/05/15 00:29:08;;;;;;;40.65;8.90;;;;;;;;;;5074431;28;20025;-70
2021/05/15 00:31:36;;;;;;;37.33;8.10;;;;;;;;;;5072389;28;20025;-64
2021/05/15 00:34:04;;;;;;;49.25;8.55;;;;;;;;;;5058273;28;20023;-69
2021/05/15 00:36:31;;;;;;;41.28;7.95;;;;;;;;;;5055614;28;20009;-66
2021/05/15 00:38:58;;;;;;;48.78;10.00;;;;;;;;;;5073482;28;20016;-65
2021/05/15 00:41:26;;;;;;;55.80;10.20;;;;;;;;;;5073506;28;20067;-65
2021/05/15 00:46:47;;;;;;;67.07;12.05;;;;;;;;;;5032890;28;20604;-63
2021/05/15 00:49:14;;;;;;;50.28;11.07;;;;;;;;;;5059352;28;20032;-67
2021/05/15 00:51:42;;;;;;;46.80;10.85;;;;;;;;;;5073262;28;20059;-67
2021/05/15 00:54:13;;;;;;;40.05;11.38;;;;;;;;;;5071880;28;20445;-66
2021/05/15 00:56:41;;;;;;;49.38;11.05;;;;;;;;;;5072622;28;20495;-66
2021/05/15 00:59:08;;;;;;;41.63;11.10;;;;;;;;;;5068642;28;20108;-66
2021/05/15 01:01:36;;;;;;;45.95;11.15;;;;;;;;;;5071921;28;20103;-64
2021/05/15 01:04:03;;;;;;;41.65;10.52;;;;;;;;;;5068722;28;20016;-65
2021/05/15 01:06:30;;;;;;;35.85;9.68;;;;;;;;;;5072354;28;20036;-66
2021/05/15 01:08:58;;;;;;;46.15;10.65;;;;;;;;;;5073679;28;20005;-68
2021/05/15 01:11:26;;;;;;;42.70;9.98;;;;;;;;;;5074216;28;20487;-67
2021/05/15 01:13:56;;;;;;;34.92;9.23;;;;;;;;;;5072695;28;20526;-69
2021/05/15 01:16:24;;;;;;;40.10;9.35;;;;;;;;;;5073230;28;20120;-69
2021/05/15 01:18:51;;;;;;;33.53;8.95;;;;;;;;;;5067879;28;20070;-70
2021/05/15 01:21:18;;;;;;;34.33;9.52;;;;;;;;;;5072193;28;20035;-66
2021/05/15 01:23:45;;;;;;;45.20;9.50;;;;;;;;;;5060928;28;20024;-63
2021/05/15 01:26:16;;;;;;;31.08;8.27;;;;;;;;;;5072417;28;20048;-68
2021/05/15 01:28:44;;;;;;;45.20;8.18;;;;;;;;;;5073171;28;20515;-69
2021/05/15 01:31:12;;;;;;;36.38;9.07;;;;;;;;;;5072726;28;20557;-66
2021/05/15 01:33:39;;;;;;;34.50;8.55;;;;;;;;;;5070279;28;20029;-57
2021/05/15 01:36:08;;;;;;;34.83;8.13;;;;;;;;;;5071837;28;20047;-60
2021/05/15 01:38:36;;;;;;;24.27;7.38;;;;;;;;;;5082458;28;21471;-67
2021/05/15 01:41:04;;;;;;;34.53;7.88;;;;;;;;;;5066580;28;20157;-65
2021/05/15 01:43:31;;;;;;;27.63;7.07;;;;;;;;;;5069630;28;20012;-65
2021/05/15 01:45:58;;;;;;;28.25;7.80;;;;;;;;;;5070504;28;20024;-64
2021/05/15 01:48:25;;;;;;;26.65;6.65;;;;;;;;;;5071274;28;20017;-64
2021/05/15 01:50:57;;;;;;;31.52;7.22;;;;;;;;;;5069358;28;20056;-65
2021/05/15 01:53:24;;;;;;;30.40;8.48;;;;;;;;;;5069822;28;20036;-66
2021/05/15 01:55:53;;;;;;;32.65;8.05;;;;;;;;;;5071720;28;20039;-57
2021/05/15 01:58:21;;;;;;;29.30;7.00;;;;;;;;;;5071745;28;20028;-61
2021/05/15 02:00:49;;;;;;;30.83;7.25;;;;;;;;;;5071163;28;20047;-58
2021/05/15 02:03:17;;;;;;;29.27;7.03;;;;;;;;;;5071645;28;20093;-56
2021/05/15 02:05:45;;;;;;;27.77;7.07;;;;;;;;;;5071366;28;20491;-61
2021/05/15 02:08:12;;;;;;;24.48;6.70;;;;;;;;;;5071391;28;20361;-60
2021/05/15 02:10:40;;;;;;;24.35;6.18;;;;;;;;;;5071254;28;20069;-58
2021/05/15 02:13:08;;;;;;;21.10;7.20;;;;;;;;;;5070145;28;20112;-64
2021/05/15 02:15:36;;;;;;;23.80;6.68;;;;;;;;;;5071186;28;20496;-58
2021/05/15 02:18:08;;;;;;;25.23;6.50;;;;;;;;;;5057711;28;20056;-58
2021/05/15 02:20:36;;;;;;;21.05;5.93;;;;;;;;;;5071155;28;20036;-65
2021/05/15 02:23:04;;;;;;;26.65;7.13;;;;;;;;;;5071311;28;20024;-60
2021/05/15 02:25:31;;;;;;;28.48;5.85;;;;;;;;;;5070771;28;20051;-62
2021/05/15 02:27:59;;;;;;;20.90;5.78;;;;;;;;;;5071425;28;20028;-62
2021/05/15 02:30:28;;;;;;;24.23;6.32;;;;;;;;;;5071392;28;20025;-59
2021/05/15 02:32:57;;;;;;;25.02;6.53;;;;;;;;;;5070990;28;20021;-65
2021/05/15 02:35:24;;;;;;;15.85;5.22;;;;;;;;;;5069907;28;20017;-61
2021/05/15 02:37:52;;;;;;;26.10;5.57;;;;;;;;;;5070763;28;20127;-57
2021/05/15 02:40:21;;;;;;;20.90;5.57;;;;;;;;;;5071025;28;20085;-61
2021/05/15 02:42:50;;;;;;;13.93;4.97;;;;;;;;;;5071376;28;20028;-64
2021/05/15 02:45:18;;;;;;;25.77;6.40;;;;;;;;;;5070760;28;20020;-59
2021/05/15 02:47:46;;;;;;;22.60;5.85;;;;;;;;;;5063442;28;20061;-59
2021/05/15 02:50:15;;;;;;;23.35;5.55;;;;;;;;;;5069776;28;20053;-61
2021/05/15 02:52:43;;;;;;;21.40;6.53;;;;;;;;;;5070019;28;20015;-59
2021/05/15 02:55:12;;;;;;;15.85;5.28;;;;;;;;;;5070452;28;20029;-61
2021/05/15 02:57:40;;;;;;;16.00;5.05;;;;;;;;;;5068899;28;20070;-65
2021/05/15 03:00:09;;;;;;;22.65;5.55;;;;;;;;;;5069533;28;20036;-60
2021/05/15 03:02:36;;;;;;;21.40;5.18;;;;;;;;;;5065497;28;20602;-63
2021/05/15 03:05:06;;;;;;;26.27;5.75;;;;;;;;;;5066525;28;20036;-61
2021/05/15 03:07:34;;;;;;;19.65;5.13;;;;;;;;;;5065814;28;20504;-56
2021/05/15 03:10:01;;;;;;;19.20;4.90;;;;;;;;;;5055037;28;20143;-62
2021/05/15 03:12:28;;;;;;;15.82;4.47;;;;;;;;;;5051560;28;20024;-64
2021/05/15 03:14:55;;;;;;;23.45;5.35;;;;;;;;;;5078238;28;20545;-60
2021/05/15 03:17:22;;;;;;;17.13;5.18;;;;;;;;;;5077952;28;20029;-56
2021/05/15 03:19:52;;;;;;;16.45;5.20;;;;;;;;;;5075632;28;20415;-60
2021/05/15 03:22:23;;;;;;;22.50;5.57;;;;;;;;;;5074812;28;20460;-70
2021/05/15 03:24:50;;;;;;;20.30;5.63;;;;;;;;;;5065943;28;20033;-71
2021/05/15 03:27:17;;;;;;;20.73;4.82;;;;;;;;;;5069137;28;20464;-66
2021/05/15 03:29:44;;;;;;;20.58;4.38;;;;;;;;;;5071407;28;20468;-66
2021/05/15 03:32:13;;;;;;;18.80;4.97;;;;;;;;;;5071294;28;20066;-67
2021/05/15 03:34:40;;;;;;;19.52;4.72;;;;;;;;;;5071674;28;20029;-67
2021/05/15 03:37:07;;;;;;;14.57;4.28;;;;;;;;;;5069981;28;20472;-67
2021/05/15 03:39:34;;;;;;;11.82;4.20;;;;;;;;;;5074834;28;20024;-67
2021/05/15 03:42:01;;;;;;;15.27;4.93;;;;;;;;;;5075433;28;20472;-66
2021/05/15 03:44:28;;;;;;;17.00;4.60;;;;;;;;;;5075386;28;20532;-67
2021/05/15 03:46:55;;;;;;;11.27;4.18;;;;;;;;;;5075169;28;20029;-67
2021/05/15 03:49:22;;;;;;;12.13;4.50;;;;;;;;;;5075202;28;20101;-67
2021/05/15 03:51:50;;;;;;;14.95;4.80;;;;;;;;;;5075240;28;20028;-66
2021/05/15 03:54:17;;;;;;;7.57;3.13;;;;;;;;;;5075075;28;20058;-67
2021/05/15 03:56:44;;;;;;;12.45;4.03;;;;;;;;;;5075012;28;20027;-67
2021/05/15 03:59:11;;;;;;;14.00;3.72;;;;;;;;;;5075161;28;20091;-66
2021/05/15 04:01:38;;;;;;;22.65;4.88;;;;;;;;;;5074984;28;20020;-66
2021/05/15 04:04:05;;;;;;;16.15;4.70;;;;;;;;;;5075075;28;20013;-67
2021/05/15 04:06:32;;;;;;;13.60;3.85;;;;;;;;;;5075066;28;20063;-67
2021/05/15 04:08:59;;;;;;;9.65;3.70;;;;;;;;;;5074896;28;20464;-67
2021/05/15 04:11:34;;;;;;;11.48;3.85;;;;;;;;;;5074839;28;20029;-67
2021/05/15 04:17:02;;;;;;;;;;;;;;;;;;5075298;28;20020;-66
2021/05/15 04:19:30;;;;;;;8.85;3.65;;;;;;;;;;5074904;28;19909;-64
2021/05/15 04:21:57;;;;;;;10.02;3.70;;;;;;;;;;5074357;28;20040;-66
2021/05/15 04:24:25;;;;;;;11.50;3.85;;;;;;;;;;5066815;28;20070;-65
2021/05/15 04:26:57;;;;;;;12.73;4.30;;;;;;;;;;5053372;28;20066;-65
2021/05/15 04:29:24;;;;;;;8.40;3.63;;;;;;;;;;5053589;28;20025;-65
2021/05/15 04:31:56;;;;;;;10.45;3.67;;;;;;;;;;5053463;28;20028;-67
2021/05/15 04:34:24;;;;;;;11.30;4.13;;;;;;;;;;5065076;28;20031;-65
2021/05/15 04:36:51;;;;;;;12.18;3.65;;;;;;;;;;5072693;28;20031;-67
2021/05/15 04:39:18;;;;;;;10.45;3.67;;;;;;;;;;5073193;28;20052;-67
2021/05/15 04:41:46;;;;;;;11.57;3.10;;;;;;;;;;5073082;28;20027;-66
2021/05/15 04:44:13;;;;;;;8.95;3.63;;;;;;;;;;5073564;28;20120;-66
2021/05/15 04:46:40;;;;;;;11.13;3.60;;;;;;;;;;5072642;28;20032;-66
2021/05/15 04:49:07;;;;;;;9.02;3.40;;;;;;;;;;5072544;28;20392;-66
2021/05/15 04:51:34;;;;;;;8.50;3.15;;;;;;;;;;5072898;28;20667;-66
2021/05/15 04:54:02;;;;;;;11.90;3.53;;;;;;;;;;5073154;28;20640;-66
2021/05/15 04:56:32;;;;;;;11.27;3.50;;;;;;;;;;5067725;28;20478;-66
2021/05/15 04:58:59;;;;;;;10.90;3.83;;;;;;;;;;5053428;28;20021;-66
2021/05/15 05:01:26;;;;;;;11.05;3.42;;;;;;;;;;5052524;28;20029;-60
2021/05/15 05:03:53;;;;;;;8.43;4.03;;;;;;;;;;5051339;28;20029;-67
2021/05/15 05:06:20;;;;;;;5.90;3.28;;;;;;;;;;5052659;28;20028;-65
2021/05/15 05:08:47;;;;;;;8.50;3.28;;;;;;;;;;5052843;28;20488;-65
2021/05/15 05:11:15;;;;;;;6.45;3.20;;;;;;;;;;5052656;28;20083;-60
2021/05/15 05:13:42;;;;;;;8.65;3.00;;;;;;;;;;5052672;28;20530;-65
2021/05/15 05:16:09;;;;;;;8.07;3.17;;;;;;;;;;5052967;28;20624;-67
2021/05/15 05:18:36;;;;;;;10.50;3.50;;;;;;;;;;5052041;28;20060;-65
2021/05/15 05:21:03;;;;;;;6.70;3.33;;;;;;;;;;5052352;28;20104;-66
2021/05/15 05:23:30;;;;;;;7.55;3.10;;;;;;;;;;5051671;28;20016;-66
2021/05/15 05:25:57;;;;;;;8.60;3.13;;;;;;;;;;5052184;28;20025;-65
2021/05/15 05:28:31;;;;;;;7.32;2.88;;;;;;;;;;5052146;28;20021;-66
2021/05/15 05:30:58;;;;;;;9.48;3.03;;;;;;;;;;5052580;28;20108;-66
2021/05/15 05:33:25;;;;;;;10.93;3.42;;;;;;;;;;5051838;28;20017;-62
2021/05/15 05:35:52;;;;;;;7.50;3.00;;;;;;;;;;5052406;28;20025;-66
2021/05/15 05:38:19;;;;;;;7.53;2.75;;;;;;;;;;5051636;28;20607;-65
2021/05/15 05:40:46;;;;;;;7.20;2.78;;;;;;;;;;5052079;28;20101;-63
2021/05/15 05:43:13;;;;;;;11.52;3.40;;;;;;;;;;5051706;28;20017;-66
2021/05/15 05:45:40;;;;;;;6.50;2.85;;;;;;;;;;5052358;28;20017;-65
2021/05/15 05:48:08;;;;;;;6.28;3.13;;;;;;;;;;5051775;28;20024;-65
2021/05/15 05:50:35;;;;;;;8.40;3.17;;;;;;;;;;5051384;28;20106;-65
2021/05/15 05:53:02;;;;;;;7.88;3.25;;;;;;;;;;5052123;28;20024;-66
2021/05/15 05:55:29;;;;;;;8.60;3.53;;;;;;;;;;5051514;28;20017;-64
2021/05/15 05:57:56;;;;;;;7.13;3.00;;;;;;;;;;5050447;28;20388;-66
2021/05/15 06:00:23;;;;;;;7.05;2.92;;;;;;;;;;5050903;28;20438;-66
2021/05/15 06:02:50;;;;;;;6.10;2.90;;;;;;;;;;5051681;28;20044;-64
2021/05/15 06:05:17;;;;;;;8.65;3.25;;;;;;;;;;5051296;28;20094;-66
2021/05/15 06:07:44;;;;;;;6.72;3.15;;;;;;;;;;5070021;28;20016;-67
2021/05/15 06:10:12;;;;;;;10.68;3.17;;;;;;;;;;5071259;28;20488;-66
2021/05/15 06:12:39;;;;;;;6.30;2.45;;;;;;;;;;5071767;28;20025;-65
2021/05/15 06:15:06;;;;;;;8.27;3.10;;;;;;;;;;5071358;28;20482;-63
2021/05/15 06:17:34;;;;;;;6.18;3.08;;;;;;;;;;5071612;28;20472;-66
2021/05/15 06:20:01;;;;;;;6.22;2.70;;;;;;;;;;5070870;28;20072;-66
2021/05/15 06:22:28;;;;;;;7.70;2.92;;;;;;;;;;5070292;28;20028;-64
2021/05/15 06:24:55;;;;;;;7.03;2.72;;;;;;;;;;5070568;28;20031;-63
2021/05/15 06:27:22;;;;;;;6.55;2.72;;;;;;;;;;5071092;28;20104;-66
2021/05/15 06:29:49;;;;;;;7.28;2.92;;;;;;;;;;5070892;28;20021;-66
2021/05/15 06:32:16;;;;;;;8.25;2.85;;;;;;;;;;5070825;28;20028;-66
2021/05/15 06:34:43;;;;;;;6.63;2.70;;;;;;;;;;5071342;28;20092;-63
2021/05/15 06:37:10;;;;;;;7.03;3.00;;;;;;;;;;5071013;28;20032;-66
2021/05/15 06:39:37;;;;;;;8.43;3.08;;;;;;;;;;5071188;28;20104;-65
2021/05/15 06:42:04;;;;;;;8.10;3.10;;;;;;;;;;5069870;28;20543;-66
2021/05/15 06:44:31;;;;;;;5.38;2.60;;;;;;;;;;5071563;28;20088;-67
2021/05/15 06:46:58;;;;;;;7.07;2.80;;;;;;;;;;5070639;28;20024;-66
2021/05/15 06:49:25;;;;;;;7.15;2.75;;;;;;;;;;5070839;28;20079;-66
2021/05/15 06:51:52;;;;;;;6.50;2.80;;;;;;;;;;5071068;28;20032;-63
2021/05/15 06:54:19;;;;;;;5.28;2.38;;;;;;;;;;5071057;28;20111;-67
2021/05/15 06:56:46;;;;;;;4.80;2.58;;;;;;;;;;5070614;28;20036;-64
2021/05/15 06:59:13;;;;;;;6.60;2.63;;;;;;;;;;5071154;28;20028;-65
2021/05/15 07:01:40;;;;;;;6.95;2.47;;;;;;;;;;5070572;28;20032;-67
2021/05/15 07:04:07;;;;;;;5.22;2.85;;;;;;;;;;5071231;28;20025;-66
2021/05/15 07:06:34;;;;;;;6.68;2.22;;;;;;;;;;5070892;28;20036;-64
2021/05/15 07:09:01;;;;;;;6.20;2.20;;;;;;;;;;5071135;28;20376;-66
2021/05/15 07:11:28;;;;;;;6.63;2.30;;;;;;;;;;5071256;28;20480;-66
2021/05/15 07:13:55;;;;;;;6.65;2.80;;;;;;;;;;5074579;28;20032;-65
2021/05/15 07:16:22;;;;;;;6.47;2.17;;;;;;;;;;5073904;28;20482;-67
2021/05/15 07:18:49;;;;;;;7.28;2.70;;;;;;;;;;5073074;28;20964;-66
2021/05/15 07:21:16;;;;;;;6.35;2.78;;;;;;;;;;5074783;28;20043;-67
2021/05/15 07:23:43;;;;;;;6.47;2.47;;;;;;;;;;5074465;28;20028;-65
2021/05/15 07:26:11;;;;;;;5.38;2.58;;;;;;;;;;5074812;28;20025;-65
2021/05/15 07:28:38;;;;;;;4.88;2.47;;;;;;;;;;5074020;28;20059;-67
2021/05/15 07:31:06;;;;;;;5.50;2.38;;;;;;;;;;5073813;28;20133;-66
2021/05/15 07:33:33;;;;;;;3.80;2.30;;;;;;;;;;5073766;28;20066;-67
2021/05/15 07:36:00;;;;;;;4.78;2.20;;;;;;;;;;5073925;28;20418;-66
2021/05/15 07:38:27;;;;;;;5.65;2.53;;;;;;;;;;5074284;28;20051;-66
2021/05/15 07:40:55;;;;;;;7.82;2.53;;;;;;;;;;5073147;28;20060;-66
2021/05/15 07:43:23;;;;;;;4.75;2.17;;;;;;;;;;5074215;28;20024;-66
2021/05/15 07:45:54;;;;;;;6.25;2.10;;;;;;;;;;5074900;28;20024;-66
2021/05/15 07:48:28;;;;;;;5.63;2.75;;;;;;;;;;5074450;28;20391;-65
2021/05/15 07:50:59;;;;;;;5.22;2.20;;;;;;;;;;5074245;28;20044;-65
2021/05/15 07:53:26;;;;;;;5.13;2.22;;;;;;;;;;5072284;28;20387;-66
2021/05/15 07:55:54;;;;;;;4.60;2.30;;;;;;;;;;5074214;28;20016;-67
2021/05/15 07:58:21;;;;;;;7.70;2.72;;;;;;;;;;5074299;28;20025;-64
2021/05/15 08:00:48;;;;;;;4.78;2.30;;;;;;;;;;5073533;28;20119;-66
2021/05/15 08:03:15;;;;;;;5.15;2.08;;;;;;;;;;5072971;28;20021;-63
2021/05/15 08:05:42;;;;;;;4.15;2.00;;;;;;;;;;5073682;28;20099;-66
2021/05/15 08:08:09;;;;;;;4.68;1.98;;;;;;;;;;5074220;28;20023;-66
2021/05/15 08:10:36;;;;;;;4.32;2.30;;;;;;;;;;5073598;28;20025;-66
2021/05/15 08:13:04;;;;;;;7.03;2.72;;;;;;;;;;5073906;28;20020;-65
2021/05/15 08:15:31;;;;;;;7.13;2.55;;;;;;;;;;5073466;28;20460;-66
2021/05/15 08:17:58;;;;;;;6.07;2.40;;;;;;;;;;5073872;28;20028;-66
2021/05/15 08:20:25;;;;;;;6.32;2.53;;;;;;;;;;5073160;28;20111;-66
2021/05/15 08:22:52;;;;;;;4.57;2.20;;;;;;;;;;5073739;28;20045;-67
2021/05/15 08:25:20;;;;;;;5.68;2.30;;;;;;;;;;5072241;28;20424;-66
2021/05/15 08:27:59;;;;;;;3.65;2.42;;;;;;;;;;5072392;28;20020;-67
2021/05/15 08:30:29;;;;;;;4.28;1.98;;;;;;;;;;5072665;28;20111;-64
2021/05/15 08:32:56;;;;;;;4.18;2.35;;;;;;;;;;5073822;28;20035;-64
2021/05/15 08:35:24;;;;;;;5.00;2.10;;;;;;;;;;5073156;28;20031;-64
2021/05/15 08:37:52;;;;;;;4.18;2.33;;;;;;;;;;5073160;28;20104;-64
2021/05/15 08:40:19;;;;;;;3.42;1.90;;;;;;;;;;5071400;28;20586;-66
2021/05/15 08:42:47;;;;;;;4.68;2.30;;;;;;;;;;5072917;28;20051;-64
2021/05/15 08:45:15;;;;;;;3.78;2.05;;;;;;;;;;5072207;28;20029;-67
2021/05/15 08:47:44;;;;;;;5.28;2.50;;;;;;;;;;5072969;28;20023;-66
2021/05/15 08:50:15;;;;;;;4.82;2.13;;;;;;;;;;5073272;28;20641;-67
2021/05/15 08:52:43;;;;;;;3.77;1.97;;;;;;;;;;5072775;28;20583;-65
2021/05/15 08:55:12;;;;;;;5.72;2.60;;;;;;;;;;5073196;28;20036;-66
2021/05/15 08:57:40;;;;;;;4.43;2.30;;;;;;;;;;5072783;28;20074;-64
2021/05/15 09:00:18;;;;;;;5.80;2.08;;;;;;;;;;5073278;28;20029;-65
2021/05/15 09:02:47;;;;;;;3.20;2.10;;;;;;;;;;5072935;28;20028;-66
2021/05/15 09:05:14;;;;;;;5.07;2.05;;;;;;;;;;5073040;28;20055;-67
2021/05/15 09:07:41;;;;;;;4.50;2.20;;;;;;;;;;5072521;28;20024;-66
2021/05/15 09:10:09;;;;;;;4.75;2.38;;;;;;;;;;5072915;28;20031;-67
2021/05/15 09:12:36;;;;;;;4.45;2.33;;;;;;;;;;5072086;28;20427;-66
2021/05/15 09:15:06;;;;;;;3.85;2.00;;;;;;;;;;5072718;28;20039;-65
2021/05/15 09:17:49;;;;;;;5.60;2.63;;;;;;;;;;5072492;28;20024;-65
2021/05/15 09:20:27;;;;;;;5.63;1.98;;;;;;;;;;5072654;28;20103;-66
2021/05/15 09:22:54;;;;;;;3.58;2.08;;;;;;;;;;5071897;28;20045;-66
2021/05/15 09:25:21;;;;;;;6.65;2.30;;;;;;;;;;5072654;28;20051;-66
2021/05/15 09:27:48;;;;;;;4.68;2.20;;;;;;;;;;5072135;28;20028;-66
2021/05/15 09:30:16;;;;;;;4.65;2.05;;;;;;;;;;5072621;28;20036;-66
2021/05/15 09:32:44;;;;;;;4.80;2.30;;;;;;;;;;5071889;28;20108;-62
2021/05/15 09:35:21;;;;;;;4.00;2.05;;;;;;;;;;5072187;28;20051;-63
2021/05/15 09:37:49;;;;;;;5.32;1.90;;;;;;;;;;5072534;28;20380;-66
2021/05/15 09:40:28;;;;;;;4.72;1.95;;;;;;;;;;5072008;28;20035;-64
2021/05/15 09:42:59;;;;;;;4.05;2.10;;;;;;;;;;5072005;28;20480;-65
2021/05/15 09:45:26;;;;;;;3.67;2.22;;;;;;;;;;5071084;28;20036;-64
2021/05/15 09:47:54;;;;;;;2.92;2.05;;;;;;;;;;5071901;28;20031;-65
2021/05/15 09:50:22;;;;;;;3.50;1.90;;;;;;;;;;5071566;28;20051;-66
2021/05/15 09:52:49;;;;;;;4.13;1.98;;;;;;;;;;5071668;28;20391;-66
2021/05/15 09:55:17;;;;;;;3.58;1.90;;;;;;;;;;5071742;28;20032;-66
2021/05/15 09:57:44;;;;;;;8.07;2.55;;;;;;;;;;5072170;28;20016;-67
2021/05/15 10:00:12;;;;;;;5.55;1.92;;;;;;;;;;5071391;28;20033;-65
2021/05/15 10:02:39;;;;;;;3.92;1.85;;;;;;;;;;5071750;28;20422;-65
2021/05/15 10:05:12;;;;;;;4.22;1.90;;;;;;;;;;5071617;28;20021;-66
2021/05/15 10:07:39;;;;;;;3.47;2.05;;;;;;;;;;5072069;28;20027;-64
2021/05/15 10:10:08;;;;;;;2.40;1.88;;;;;;;;;;5071205;28;20016;-64
2021/05/15 10:12:36;;;;;;;4.68;1.98;;;;;;;;;;5071385;28;20063;-65
2021/05/15 10:15:05;;;;;;;5.22;2.30;;;;;;;;;;5071224;28;20079;-65
2021/05/15 10:17:34;;;;;;;3.75;2.00;;;;;;;;;;5071600;28;20013;-65
2021/05/15 10:20:05;;;;;;;3.97;1.88;;;;;;;;;;5071216;28;20064;-66
2021/05/15 10:22:41;;;;;;;2.63;1.55;;;;;;;;;;5071626;28;20024;-66
2021/05/15 10:25:13;;;;;;;3.45;1.95;;;;;;;;;;5070932;28;20016;-60
2021/05/15 10:27:40;;;;;;;3.95;2.40;;;;;;;;;;5071266;28;20021;-65
2021/05/15 10:30:18;;;;;;;5.30;2.10;;;;;;;;;;5071622;28;20072;-66
2021/05/15 10:33:01;;;;;;;4.93;2.38;;;;;;;;;;5071276;28;20048;-66
2021/05/15 10:35:32;;;;;;;3.50;1.90;;;;;;;;;;5071084;28;20128;-61
2021/05/15 10:38:21;;;;;;;3.83;2.13;;;;;;;;;;5071487;28;20028;-67
2021/05/15 10:40:49;;;;;;;3.83;2.10;;;;;;;;;;5070814;28;20657;-66
2021/05/15 10:43:36;;;;;;;6.80;2.30;;;;;;;;;;5067638;28;20021;-64
2021/05/15 10:46:17;;;;;;;4.47;2.40;;;;;;;;;;5067318;28;20072;-66
2021/05/15 10:48:55;;;;;;;3.22;2.08;;;;;;;;;;5050639;28;20044;-66
2021/05/15 10:51:32;;;;;;;2.75;2.08;;;;;;;;;;5050306;28;20021;-67
2021/05/15 10:53:59;;;;;;;4.70;2.15;;;;;;;;;;5050512;28;20419;-66
2021/05/15 10:56:29;;;;;;;4.90;2.45;;;;;;;;;;5050950;28;20024;-64
2021/05/15 10:59:16;;;;;;;5.22;2.20;;;;;;;;;;5050947;28;20384;-64
2021/05/15 11:02:02;;;;;;;4.03;2.15;;;;;;;;;;5050581;28;20036;-64
2021/05/15 11:04:35;;;;;;;6.45;2.40;;;;;;;;;;5056046;28;20024;-64
2021/05/15 11:07:05;;;;;;;3.35;1.80;;;;;;;;;;5070423;28;20036;-66
2021/05/15 11:09:33;;;;;;;3.67;2.33;;;;;;;;;;5071176;28;20484;-66
2021/05/15 11:12:04;;;;;;;3.15;2.05;;;;;;;;;;5070882;28;20404;-61
2021/05/15 11:14:35;;;;;;;3.25;1.90;;;;;;;;;;5070736;28;20464;-66
2021/05/15 11:17:23;;;;;;;3.78;2.20;;;;;;;;;;5070541;28;20046;-65
2021/05/15 11:20:05;;;;;;;4.97;2.25;;;;;;;;;;5070706;28;20036;-66
2021/05/15 11:22:47;;;;;;;3.05;1.83;;;;;;;;;;5070360;28;20738;-67
2021/05/15 11:25:14;;;;;;;3.05;1.80;;;;;;;;;;5070819;28;20039;-67
2021/05/15 11:28:00;;;;;;;3.83;2.13;;;;;;;;;;5070599;28;20063;-65
2021/05/15 11:30:43;;;;;;;4.18;2.25;;;;;;;;;;5070954;28;20024;-66
2021/05/15 11:33:11;;;;;;;;;;;;;;;;;;5070859;28;20021;-66
2021/05/15 11:35:42;;;;;;;3.95;1.92;;;;;;;;;;5070652;28;19936;-67
2021/05/15 11:38:10;;;;;;;3.08;1.95;;;;;;;;;;5070311;28;20013;-65
2021/05/15 12:03:21;;;;;;;3.92;1.95;;;;;;;;;;5143015;27;20121;-67
2021/05/15 12:05:49;;;;;;;4.70;2.13;;;;;;;;;;5129730;28;20039;-67
2021/05/15 12:08:17;;;;;;;4.50;2.45;;;;;;;;;;5130086;28;20012;-66
2021/05/15 12:10:44;;;;;;;4.30;2.00;;;;;;;;;;5129664;28;20094;-66
2021/05/15 12:13:13;;;;;;;5.32;2.28;;;;;;;;;;5130046;28;20019;-65
2021/05/15 12:15:41;;;;;;;3.55;2.20;;;;;;;;;;5111261;28;20127;-65
2021/05/15 12:18:08;;;;;;;7.47;2.30;;;;;;;;;;5129756;28;20047;-67
2021/05/15 12:20:43;;;;;;;4.85;1.98;;;;;;;;;;5128979;28;20022;-66
2021/05/15 12:23:12;;;;;;;4.82;2.30;;;;;;;;;;5129671;28;20023;-67
2021/05/15 12:25:40;;;;;;;4.93;2.28;;;;;;;;;;5128921;28;20463;-65
2021/05/15 12:28:27;;;;;;;5.70;2.22;;;;;;;;;;5129916;28;20028;-64
2021/05/15 12:30:55;;;;;;;4.03;2.20;;;;;;;;;;5129003;28;20055;-66
2021/05/15 12:33:25;;;;;;;4.80;2.47;;;;;;;;;;5129626;28;20027;-66
2021/05/15 12:36:09;;;;;;;3.38;1.95;;;;;;;;;;5128870;28;20003;-66
2021/05/15 12:38:45;;;;;;;3.58;2.10;;;;;;;;;;5129396;28;20034;-64
2021/05/15 12:41:21;;;;;;;4.65;2.20;;;;;;;;;;5110377;28;20039;-64
2021/05/15 12:43:48;;;;;;;5.47;2.47;;;;;;;;;;5125683;28;20028;-66
2021/05/15 12:46:16;;;;;;;3.78;2.03;;;;;;;;;;5113628;28;20024;-65
2021/05/15 12:48:54;;;;;;;3.33;1.95;;;;;;;;;;5116683;28;20027;-66
2021/05/15 12:51:28;;;;;;;4.88;2.15;;;;;;;;;;5128506;28;20072;-65
2021/05/15 12:53:55;;;;;;;6.80;2.17;;;;;;;;;;5128608;28;20096;-66
2021/05/15 12:56:28;;;;;;;4.13;2.30;;;;;;;;;;5128355;28;20023;-65
2021/05/15 12:58:56;;;;;;;6.80;2.38;;;;;;;;;;5101490;28;20800;-66
2021/05/15 13:01:24;;;;;;;4.20;2.22;;;;;;;;;;5094560;28;20044;-66
2021/05/15 13:03:52;;;;;;;6.15;2.40;;;;;;;;;;5080704;28;20434;-65
2021/05/15 13:06:21;;;;;;;5.43;2.22;;;;;;;;;;5085360;28;20029;-66
2021/05/15 13:08:55;;;;;;;5.50;2.33;;;;;;;;;;5085065;28;20502;-66
2021/05/15 13:11:22;;;;;;;10.82;2.40;;;;;;;;;;5085865;28;20031;-66
2021/05/15 13:13:50;;;;;;;5.30;2.20;;;;;;;;;;5075232;28;20487;-62
2021/05/15 13:16:18;;;;;;;5.55;2.25;;;;;;;;;;5087667;28;20035;-65
2021/05/15 13:18:45;;;;;;;5.45;2.30;;;;;;;;;;5085886;28;20492;-67
2021/05/15 13:21:13;;;;;;;9.57;2.67;;;;;;;;;;5084334;28;20020;-66
2021/05/15 13:23:40;;;;;;;5.28;2.30;;;;;;;;;;5076905;28;20662;-64
2021/05/15 13:26:08;;;;;;;6.43;2.80;;;;;;;;;;5077860;28;20391;-64
2021/05/15 13:28:38;;;;;;;11.15;2.40;;;;;;;;;;5072665;28;20039;-63
2021/05/15 13:31:08;;;;;;;4.68;2.42;;;;;;;;;;5073564;28;20064;-63
2021/05/15 13:33:36;;;;;;;4.60;2.35;;;;;;;;;;5072774;28;20496;-66
2021/05/15 13:36:03;;;;;;;5.45;2.50;;;;;;;;;;5074499;28;20039;-64
2021/05/15 13:38:30;;;;;;;5.00;2.35;;;;;;;;;;5084766;28;20035;-68
2021/05/15 13:40:57;;;;;;;8.23;2.50;;;;;;;;;;5085310;28;20008;-64
2021/05/15 13:43:24;;;;;;;7.65;2.22;;;;;;;;;;5078593;28;20044;-68
2021/05/15 13:45:51;;;;;;;6.55;2.78;;;;;;;;;;5083075;28;20052;-65
2021/05/15 13:48:39;;;;;;;7.60;2.85;;;;;;;;;;5078756;28;20505;-66
2021/05/15 13:51:09;;;;;;;4.20;2.30;;;;;;;;;;5073962;28;20044;-65
2021/05/15 13:53:37;;;;;;;6.25;2.35;;;;;;;;;;5083432;28;20123;-66
2021/05/15 13:56:06;;;;;;;6.25;2.58;;;;;;;;;;5076794;28;20021;-66
2021/05/15 13:58:33;;;;;;;6.68;2.60;;;;;;;;;;5071527;28;20056;-65
2021/05/15 14:01:00;;;;;;;5.47;2.65;;;;;;;;;;5071404;28;20025;-63
2021/05/15 14:03:27;;;;;;;6.72;2.50;;;;;;;;;;5074404;28;20017;-64
2021/05/15 14:05:54;;;;;;;8.35;2.85;;;;;;;;;;5055715;28;20021;-63
2021/05/15 14:08:22;;;;;;;8.65;3.00;;;;;;;;;;5082339;28;20466;-64
2021/05/15 14:10:49;;;;;;;8.25;2.47;;;;;;;;;;5073061;28;20021;-63
2021/05/15 14:13:16;;;;;;;6.35;2.50;;;;;;;;;;5075703;28;20024;-64
2021/05/15 14:15:44;;;;;;;4.43;2.42;;;;;;;;;;5081679;28;20456;-66
2021/05/15 14:18:11;;;;;;;8.20;2.47;;;;;;;;;;5074806;28;20081;-64
2021/05/15 14:20:39;;;;;;;11.48;2.55;;;;;;;;;;5076327;28;20020;-64
2021/05/15 14:23:06;;;;;;;10.85;3.10;;;;;;;;;;5082898;28;20027;-65
2021/05/15 14:25:33;;;;;;;9.05;2.70;;;;;;;;;;5074593;28;20079;-66
2021/05/15 14:28:01;;;;;;;13.13;3.30;;;;;;;;;;5080958;28;20035;-65
2021/05/15 14:30:28;;;;;;;7.00;2.70;;;;;;;;;;5082550;28;20021;-62
2021/05/15 14:32:55;;;;;;;11.52;2.72;;;;;;;;;;5077986;28;20136;-64
2021/05/15 14:35:22;;;;;;;8.27;2.92;;;;;;;;;;5084260;28;20027;-64
2021/05/15 14:37:49;;;;;;;4.68;2.90;;;;;;;;;;5084204;28;20483;-64
2021/05/15 14:40:25;;;;;;;8.32;2.50;;;;;;;;;;5079996;28;20352;-64
2021/05/15 14:42:52;;;;;;;6.18;2.85;;;;;;;;;;5075767;28;20042;-62
2021/05/15 14:45:19;;;;;;;9.05;2.90;;;;;;;;;;5076788;28;20162;-64
2021/05/15 14:47:46;;;;;;;9.27;3.13;;;;;;;;;;5081254;28;20024;-63
2021/05/15 14:50:14;;;;;;;7.43;3.08;;;;;;;;;;5078087;28;20069;-65
2021/05/15 14:52:41;;;;;;;10.55;3.25;;;;;;;;;;5076957;28;20032;-64
2021/05/15 14:55:09;;;;;;;9.48;3.45;;;;;;;;;;5075096;28;20133;-63
2021/05/15 14:57:37;;;;;;;9.90;3.05;;;;;;;;;;5070968;28;20632;-62
2021/05/15 15:00:08;;;;;;;16.67;3.25;;;;;;;;;;5074281;28;20127;-65
2021/05/15 15:02:35;;;;;;;9.00;2.80;;;;;;;;;;5075790;28;20063;-66
2021/05/15 15:05:02;;;;;;;11.15;3.97;;;;;;;;;;5073780;28;20872;-62
2021/05/15 15:07:31;;;;;;;13.68;3.92;;;;;;;;;;5073609;28;20211;-58
2021/05/15 15:09:58;;;;;;;12.95;3.90;;;;;;;;;;5077038;28;20031;-61
2021/05/15 15:12:25;;;;;;;12.50;3.65;;;;;;;;;;5070300;28;20028;-61
2021/05/15 15:14:52;;;;;;;11.40;4.00;;;;;;;;;;5078672;28;20103;-62
2021/05/15 15:17:19;;;;;;;15.88;4.45;;;;;;;;;;5069070;28;20028;-62